Airfield :
LOGIN :

Register | Disclaimer

   EN    FR    IT 

 










Legend :    VFR   Marginal VFR   IFR   Intensive IFR   Very Intensive IFR
Visi :
Ceiling :
>= 8 km
>= 3000ft
5 to 8 km
1000 to 3000 ft
1500m to 5 km
500 to 1000 ft
800 to 1500m
200 to 500 ft
< 800m
< 200 ft
Symbols :   Thunderstorms  Fog  Heavy snow  Heavy precipitations  Wind > 20 kt
SIGMETs :     Misc.  Thunderstorms  Icing  Turbulence  Mountain Waves  Volcanic Ashes






- Airport Elevation : 659 ft
- IATA code : LYN


LFLY - Lyon Bron

CURRENT METAR :
  • 141900Z AUTO 30002KT 2300 -SN BR BKN003 BKN012 OVC017 00/00 Q0998 TEMPO 0800

EXPIRED METARs :
  • 141830Z AUTO 29003KT 2900 -SN BR FEW003/// OVC016/// ///TCU 00/M00 Q0998 TEMPO 0800 BKN004
  • 141800Z AUTO VRB01KT 2900 -SN BR OVC017/// ///TCU 01/M00 Q0998 TEMPO 0800 BKN004
  • 141730Z AUTO 00000KT 4700 -SN BR OVC022 01/00 Q0998 TEMPO 0800 BKN004
  • 141700Z AUTO 07002KT 3100 -SN BR OVC019 01/M00 Q0998 TEMPO 0800 BKN004
  • 141630Z AUTO 00000KT 4700 -SN BR FEW010 BKN016 OVC021 01/00 Q0998 TEMPO 0800 BKN004

TAF TAF LFLY
Valid from the 14 at 18:00 until the 15 at 18:00 UTC


141700Z 1418/1518 VRB03KT 4000 SN BKN012 OVC030
TEMPO 1418/1505 0800 BKN004
BECMG 1501/1504 18006KT
BECMG 1504/1508 CAVOK
ATIS : +33 4 72 15 87 96



MET'MAP, your aeronautical weather chart ! - Copyright ORBIFLY December 2007 - Disclaimer

ORBIFLY MET'MAP TEAM :

Programming & Development : Alexandra Zaïnal
Concept & Development : Baudouin d'Aumeries
Co-Development & Prog : Marc-Olivier Méhu
Technical & hardware support : Manuel Goepfert

Contact : metmap@orbifly.com




SOURCES & CREDITS :

   NOAA